Airfield :
LOGIN :

Register | Disclaimer

   EN    FR    IT 

 










Legend :    VFR   Marginal VFR   IFR   Intensive IFR   Very Intensive IFR
Visi :
Ceiling :
>= 8 km
>= 3000ft
5 to 8 km
1000 to 3000 ft
1500m to 5 km
500 to 1000 ft
800 to 1500m
200 to 500 ft
< 800m
< 200 ft
Symbols :   Thunderstorms  Fog  Heavy snow  Heavy precipitations  Wind > 20 kt
SIGMETs :     Misc.  Thunderstorms  Icing  Turbulence  Mountain Waves  Volcanic Ashes






- Airport Elevation : 6 ft
- IATA code : PSA


LIRP - Galileo Galilei Pisa

CURRENT METAR :
  • 281945Z 14010KT 9999 SCT080 10/07 Q1012 NOSIG

EXPIRED METARs :
  • 281915Z 12010KT 9999 SCT080 11/07 Q1012 NOSIG
  • 281845Z 12011KT 9999 SCT080 11/07 Q1012 NOSIG
  • 281815Z 14010KT 9999 SCT080 11/08 Q1012 NOSIG
  • 281745Z 13011KT 9999 SCT080 12/07 Q1012 NOSIG
  • 281715Z 11012KT 9999 BKN070 13/07 Q1012 NOSIG

TAF TAF LIRP
Valid from the 28 at 18:00 until the 29 at 18:00 UTC


281700Z 2818/2918 10006KT 9999 FEW040 BKN070
TEMPO 2818/2918 08015G25KT



MET'MAP, your aeronautical weather chart ! - Copyright ORBIFLY December 2007 - Disclaimer

ORBIFLY MET'MAP TEAM :

Programming & Development : Alexandra Zaïnal
Concept & original design : Baudouin d'Aumeries
Assistance for programming : Marc-Olivier Méhu
Technical & hardware support : Manuel Goepfert

Contact : metmap@orbifly.com




SOURCES & CREDITS :

   NOAA